Time;durP1;ratioP1;P1;durP2;ratioP2;P2;SDS_P1;SDS_P2;PMS_P1;PMS_P2;Temp;Humidity;BMP_temperature;BMP_pressure;BME280_temperature;BME280_humidity;BME280_pressure;Samples;Min_cycle;Max_cycle;Signal;HPM_P1;HPM_P2
2021/04/30 00:08:45;;;;;;;10.35;6.00;;;;;;;5.73;88.11;99892.91;20987687;28;20143;-71
2021/04/30 00:18:46;;;;;;;10.57;7.35;;;;;;;5.63;87.66;99895.94;20987548;28;20458;-71
2021/04/30 00:28:47;;;;;;;11.38;6.93;;;;;;;5.48;87.76;99900.03;20994419;28;20044;-72
2021/04/30 00:38:48;;;;;;;11.82;7.13;;;;;;;5.38;89.37;99890.94;20950763;28;20098;-72
2021/04/30 00:48:50;;;;;;;10.60;7.10;;;;;;;5.24;90.28;99890.63;20984507;28;20589;-71
2021/04/30 00:58:53;;;;;;;10.65;6.53;;;;;;;5.18;89.24;99896.09;20991728;28;20492;-71
2021/04/30 01:08:54;;;;;;;14.88;7.03;;;;;;;4.88;91.86;99898.97;20982809;28;20037;-71
2021/04/30 01:18:55;;;;;;;11.55;6.90;;;;;;;4.74;91.39;99890.91;20981621;28;20050;-71
2021/04/30 01:28:57;;;;;;;12.52;7.47;;;;;;;4.63;93.68;99904.25;20989908;28;20049;-71
2021/04/30 01:39:07;;;;;;;12.27;7.43;;;;;;;4.43;91.90;99908.50;20962588;28;20063;-71
2021/04/30 01:49:09;;;;;;;11.13;6.93;;;;;;;4.27;93.92;99911.66;20980917;28;20049;-71
2021/04/30 01:59:11;;;;;;;12.57;7.28;;;;;;;4.19;92.19;99924.06;20986580;28;20112;-71
2021/04/30 02:09:13;;;;;;;13.35;7.95;;;;;;;4.07;93.04;99919.28;20976756;28;20040;-70
2021/04/30 02:19:14;;;;;;;12.40;7.05;;;;;;;3.79;93.03;99908.22;20979935;28;20488;-69
2021/04/30 02:29:15;;;;;;;12.48;7.57;;;;;;;3.68;93.40;99900.81;20974275;28;20049;-70
2021/04/30 02:39:17;;;;;;;11.73;7.68;;;;;;;3.55;93.90;99924.59;20909896;28;21445;-71
2021/04/30 02:49:26;;;;;;;10.27;6.38;;;;;;;3.41;92.94;99919.84;20978808;28;20041;-70
2021/04/30 02:59:28;;;;;;;12.23;7.80;;;;;;;3.28;94.52;99910.81;20984886;28;20484;-70
2021/04/30 03:09:29;;;;;;;12.20;7.95;;;;;;;3.06;95.01;99902.88;20953218;28;20044;-70
2021/04/30 03:19:31;;;;;;;12.77;7.15;;;;;;;2.99;94.51;99907.44;20997093;28;20057;-71
2021/04/30 03:29:32;;;;;;;13.70;7.78;;;;;;;2.68;95.97;99908.41;20999384;28;20361;-71
2021/04/30 03:39:33;;;;;;;15.25;8.75;;;;;;;2.87;97.21;99907.78;20985473;28;20057;-70
2021/04/30 03:49:35;;;;;;;15.80;8.98;;;;;;;3.10;95.65;99894.13;20995482;28;20542;-71
2021/04/30 03:59:36;;;;;;;18.02;9.77;;;;;;;3.18;95.73;99907.69;20997508;28;20076;-70
2021/04/30 04:09:38;;;;;;;13.77;9.18;;;;;;;3.55;95.42;99927.19;20983004;28;20044;-70
2021/04/30 04:19:39;;;;;;;14.65;8.63;;;;;;;3.87;93.15;99919.16;20993372;28;20056;-71
2021/04/30 04:29:40;;;;;;;15.40;8.50;;;;;;;3.83;93.69;99907.22;20926928;28;20450;-71
2021/04/30 04:39:42;;;;;;;15.52;9.80;;;;;;;4.22;90.73;99913.56;20916462;28;20044;-71
2021/04/30 04:49:43;;;;;;;27.77;16.20;;;;;;;4.29;91.11;99921.97;20912801;28;20049;-71
2021/04/30 04:59:45;;;;;;;16.55;9.48;;;;;;;4.53;88.84;99928.84;20910226;28;20075;-71
2021/04/30 05:09:46;;;;;;;20.50;10.65;;;;;;;4.74;87.64;99927.19;20916692;28;20048;-71
2021/04/30 05:19:48;;;;;;;17.83;9.85;;;;;;;4.86;86.96;99926.72;20989398;28;20103;-71
2021/04/30 05:29:51;;;;;;;19.00;9.63;;;;;;;4.92;84.96;99928.25;20990649;28;20051;-71
2021/04/30 05:39:53;;;;;;;16.48;10.82;;;;;;;5.09;86.18;99931.84;20973878;22;20051;-70
2021/04/30 05:49:54;;;;;;;17.05;10.63;;;;;;;5.18;87.37;99911.66;20838040;28;20107;-70
2021/04/30 05:59:55;;;;;;;17.10;10.68;;;;;;;5.39;85.08;99921.16;20904114;28;20144;-70
2021/04/30 06:10:04;;;;;;;19.13;11.98;;;;;;;5.78;83.07;99919.50;21099360;27;20394;-71
2021/04/30 06:20:06;;;;;;;19.25;11.82;;;;;;;6.03;79.80;99916.75;20972519;28;20056;-71
2021/04/30 06:30:09;;;;;;;22.42;12.52;;;;;;;5.95;80.17;99911.88;20971527;28;20103;-70
2021/04/30 06:40:10;;;;;;;23.60;13.32;;;;;;;6.08;79.24;99916.53;20972751;28;20052;-70
2021/04/30 06:50:12;;;;;;;21.60;13.52;;;;;;;6.21;79.54;99928.91;21052468;28;20059;-70
2021/04/30 07:00:16;;;;;;;25.13;15.15;;;;;;;6.63;77.40;99925.31;21050998;28;20106;-70
2021/04/30 07:10:18;;;;;;;26.23;15.47;;;;;;;6.81;77.90;99921.84;20961188;28;20053;-69
2021/04/30 07:20:19;;;;;;;23.08;14.68;;;;;;;6.93;77.66;99905.69;20915795;28;20496;-70
2021/04/30 07:30:21;;;;;;;25.98;16.13;;;;;;;7.20;75.90;99908.75;20828166;28;20416;-70
2021/04/30 07:40:22;;;;;;;31.58;16.42;;;;;;;7.46;76.13;99923.94;20859013;28;20059;-69
2021/04/30 07:50:24;;;;;;;26.05;17.50;;;;;;;7.57;74.73;99957.22;20982236;28;20098;-70
2021/04/30 08:00:25;;;;;;;27.95;16.70;;;;;;;7.44;73.03;99946.59;20994015;28;20137;-70
2021/04/30 08:10:26;;;;;;;29.85;17.77;;;;;;;7.57;72.93;99965.91;20981624;28;20059;-68
2021/04/30 08:20:27;;;;;;;23.02;15.70;;;;;;;7.81;74.16;99976.88;20987870;28;20052;-69
2021/04/30 08:30:29;;;;;;;31.05;18.55;;;;;;;7.67;75.94;99979.31;20905781;28;20049;-69
2021/04/30 08:40:30;;;;;;;32.53;18.75;;;;;;;7.47;75.27;99976.81;20888167;28;20435;-69
2021/04/30 08:50:31;;;;;;;37.42;20.55;;;;;;;7.58;76.98;99979.75;20868691;28;20045;-71
2021/04/30 09:00:33;;;;;;;37.35;21.90;;;;;;;7.58;77.46;99985.81;20858169;28;20042;-70
2021/04/30 09:10:40;;;;;;;21.90;14.00;;;;;;;7.35;78.99;99977.44;20862157;28;20087;-69
2021/04/30 09:20:42;;;;;;;30.77;18.67;;;;;;;6.59;86.84;99965.38;20866144;28;20048;-70
2021/04/30 09:30:43;;;;;;;30.77;17.48;;;;;;;6.37;85.63;99976.72;20861942;28;20494;-69
2021/04/30 09:40:44;;;;;;;34.88;20.27;;;;;;;6.73;89.25;99982.03;20873669;28;20127;-69
2021/04/30 09:50:48;;;;;;;31.67;20.70;;;;;;;7.34;92.92;99981.78;20887229;28;20096;-68
2021/04/30 10:00:52;;;;;;;28.77;18.53;;;;;;;7.46;91.61;99970.81;20855044;28;20508;-69
2021/04/30 10:10:53;;;;;;;30.67;18.40;;;;;;;7.52;90.32;99954.84;20851303;28;20041;-68
2021/04/30 10:21:13;;;;;;;21.73;14.68;;;;;;;7.49;91.02;99955.03;20819877;28;20045;-69
2021/04/30 10:31:20;;;;;;;25.25;15.05;;;;;;;7.52;91.46;99948.81;20829290;28;20401;-70
2021/04/30 10:41:30;;;;;;;23.48;14.10;;;;;;;7.73;90.79;99940.78;20912404;28;20045;-69
2021/04/30 10:51:39;;;;;;;21.77;14.00;;;;;;;7.99;91.08;99946.44;20868731;28;20049;-69
2021/04/30 11:01:49;;;;;;;24.35;15.80;;;;;;;8.00;91.11;99950.75;20833027;28;20057;-69
2021/04/30 11:11:50;;;;;;;23.15;14.82;;;;;;;8.22;90.73;99969.59;20878081;28;20111;-70
2021/04/30 11:21:55;;;;;;;21.52;14.70;;;;;;;8.55;89.34;99986.09;20997995;28;20093;-69
2021/04/30 11:32:26;;;;;;;23.47;15.90;;;;;;;8.47;90.06;99992.66;20994733;28;20052;-69
2021/04/30 11:42:33;;;;;;;23.90;15.30;;;;;;;8.35;90.86;99986.31;20979183;28;20131;-69
2021/04/30 11:52:44;;;;;;;26.88;17.10;;;;;;;8.43;90.92;99971.09;20992587;28;20053;-69
2021/04/30 12:02:58;;;;;;;23.80;16.08;;;;;;;8.68;91.05;99954.16;20986757;28;20048;-70
2021/04/30 12:13:00;;;;;;;22.85;15.90;;;;;;;9.02;91.04;99949.63;20933889;28;20118;-70
2021/04/30 12:23:04;;;;;;;19.80;13.35;;;;;;;9.23;86.69;99973.72;20992027;28;20056;-70
2021/04/30 12:33:06;;;;;;;19.02;13.05;;;;;;;8.96;85.01;100003.94;20893684;28;20172;-71
2021/04/30 12:43:08;;;;;;;23.45;15.98;;;;;;;8.99;86.91;100001.16;20893870;28;20097;-70
2021/04/30 12:53:10;;;;;;;22.58;14.95;;;;;;;8.69;86.56;99992.34;20931288;28;20451;-71
2021/04/30 13:03:15;;;;;;;23.48;15.18;;;;;;;8.95;84.24;99978.75;20906066;28;20457;-72
2021/04/30 13:13:16;;;;;;;20.00;13.50;;;;;;;8.86;81.46;99974.03;20931307;28;20051;-70
2021/04/30 13:23:18;;;;;;;22.65;13.60;;;;;;;9.51;80.62;99970.38;20986678;28;20056;-71
2021/04/30 13:33:24;;;;;;;21.45;13.68;;;;;;;9.82;80.69;99980.78;20985241;28;20051;-70
2021/04/30 13:43:34;;;;;;;18.08;11.52;;;;;;;9.87;76.29;99983.13;20915609;28;20045;-69
2021/04/30 13:53:36;;;;;;;20.27;12.35;;;;;;;9.20;76.31;99994.75;20887622;28;20072;-70
2021/04/30 14:03:38;;;;;;;22.60;13.32;;;;;;;9.74;77.24;99984.78;20897268;28;20071;-69
2021/04/30 14:13:39;;;;;;;22.02;13.73;;;;;;;9.94;76.51;99960.94;20903050;28;20136;-70
2021/04/30 14:23:40;;;;;;;21.52;14.00;;;;;;;9.56;74.42;99928.31;20898564;28;20041;-70
2021/04/30 14:33:41;;;;;;;20.50;13.95;;;;;;;9.75;72.78;99928.97;20909020;28;20037;-70
2021/04/30 14:43:44;;;;;;;20.77;14.48;;;;;;;9.77;74.08;99934.94;20915693;28;20041;-70
2021/04/30 14:53:45;;;;;;;24.88;15.50;;;;;;;10.19;70.93;99949.91;20899504;28;20045;-70
2021/04/30 15:03:47;;;;;;;21.67;14.23;;;;;;;9.81;71.38;99944.25;20907840;28;20041;-70
2021/04/30 15:13:48;;;;;;;21.80;15.02;;;;;;;9.85;74.76;99951.03;20911897;28;20079;-70
2021/04/30 15:23:49;;;;;;;28.08;17.83;;;;;;;8.96;77.98;99941.28;20908908;28;20037;-70
2021/04/30 15:33:52;;;;;;;26.98;18.50;;;;;;;9.00;77.84;99917.53;20912373;28;20056;-69
2021/04/30 15:43:55;;;;;;;27.50;17.98;;;;;;;9.02;78.10;99920.09;20899359;28;20053;-70
2021/04/30 15:53:56;;;;;;;25.13;16.77;;;;;;;9.27;74.24;99930.00;20902617;28;20099;-70
2021/04/30 16:03:58;;;;;;;26.17;18.85;;;;;;;9.53;75.85;99918.91;20906990;28;20048;-71
2021/04/30 16:14:00;;;;;;;26.38;18.10;;;;;;;9.52;76.02;99945.09;20920972;28;20469;-69
2021/04/30 16:24:01;;;;;;;24.67;18.17;;;;;;;9.42;75.36;99921.28;20905983;28;20049;-70
2021/04/30 16:34:03;;;;;;;26.35;18.35;;;;;;;9.33;78.71;99932.25;20894643;28;20416;-70
2021/04/30 16:44:09;;;;;;;24.52;17.23;;;;;;;9.27;74.73;99919.53;20911905;28;20041;-71
2021/04/30 16:54:17;;;;;;;21.90;15.30;;;;;;;9.60;74.44;99942.91;20903753;28;20122;-71
2021/04/30 17:04:19;;;;;;;34.25;22.05;;;;;;;9.49;77.45;99967.03;20904569;28;20079;-72
2021/04/30 17:14:20;;;;;;;26.67;16.77;;;;;;;9.30;78.83;99964.59;20916800;28;20492;-70
2021/04/30 17:24:22;;;;;;;23.27;17.38;;;;;;;8.99;79.48;99949.78;20901615;28;20077;-70
2021/04/30 17:34:24;;;;;;;26.25;17.85;;;;;;;8.93;80.92;99964.97;20902473;28;20048;-70
2021/04/30 17:44:25;;;;;;;24.00;17.30;;;;;;;8.94;81.09;99956.19;20900343;28;20104;-71
2021/04/30 17:54:26;;;;;;;25.90;17.95;;;;;;;8.55;84.71;99960.03;20893080;28;20408;-70
2021/04/30 18:04:30;;;;;;;30.45;20.63;;;;;;;8.53;84.00;99992.34;20900726;28;20095;-69
2021/04/30 18:14:31;;;;;;;28.13;19.23;;;;;;;8.57;84.96;99989.50;20893878;28;20118;-69
2021/04/30 18:24:33;;;;;;;28.02;20.13;;;;;;;8.52;86.21;99993.25;20915074;28;20040;-69
2021/04/30 18:34:34;;;;;;;30.80;22.10;;;;;;;8.43;86.53;99994.56;20898053;28;20135;-70
2021/04/30 18:44:55;;;;;;;35.67;23.08;;;;;;;8.32;87.58;99993.44;20902913;28;20086;-70
2021/04/30 18:54:56;;;;;;;42.42;25.35;;;;;;;8.29;89.48;99996.16;20897799;28;20045;-69
2021/04/30 19:04:57;;;;;;;28.60;19.42;;;;;;;7.91;92.57;100011.16;20898946;28;20056;-70
2021/04/30 19:15:00;;;;;;;32.28;21.40;;;;;;;7.94;92.57;100027.47;20925129;28;20060;-70
2021/04/30 19:25:04;;;;;;;34.55;22.45;;;;;;;7.96;91.90;100043.88;20909230;28;20067;-71
2021/04/30 19:35:06;;;;;;;39.47;25.05;;;;;;;8.08;91.64;100034.59;20914218;28;20103;-70
2021/04/30 19:45:09;;;;;;;44.03;28.80;;;;;;;8.03;88.66;100047.00;20901700;28;20053;-70
2021/04/30 19:55:13;;;;;;;35.10;23.27;;;;;;;7.91;90.57;100040.66;20927001;28;20056;-70
2021/04/30 20:05:14;;;;;;;36.03;24.05;;;;;;;7.83;91.04;100061.00;20890700;28;20107;-70
2021/04/30 20:15:17;;;;;;;42.67;26.55;;;;;;;7.66;91.49;100072.25;20889172;28;20067;-70
2021/04/30 20:25:18;;;;;;;34.38;23.13;;;;;;;7.56;92.44;100081.44;20884539;28;20053;-70
2021/04/30 20:35:20;;;;;;;39.15;27.08;;;;;;;7.51;90.44;100069.53;20875245;28;20052;-70
2021/04/30 20:45:22;;;;;;;39.10;25.58;;;;;;;7.35;90.96;100072.00;20909085;28;20049;-70
2021/04/30 20:55:23;;;;;;;41.00;26.15;;;;;;;7.28;93.32;100086.22;20901158;28;20045;-70
2021/04/30 21:05:25;;;;;;;39.65;26.83;;;;;;;7.25;94.25;100075.94;20901756;28;20067;-70
2021/04/30 21:15:26;;;;;;;41.13;27.35;;;;;;;7.21;91.37;100074.41;20905071;28;20045;-71
2021/04/30 21:25:27;;;;;;;39.38;25.85;;;;;;;7.07;92.16;100071.56;20907158;28;20095;-70
2021/04/30 21:35:28;;;;;;;38.40;25.95;;;;;;;7.00;92.72;100071.00;20901536;28;20037;-71
2021/04/30 21:45:30;;;;;;;39.85;25.95;;;;;;;6.93;93.70;100066.13;20899500;28;20102;-70
2021/04/30 21:55:31;;;;;;;43.58;27.98;;;;;;;6.70;94.85;100077.56;20904683;28;20041;-70
2021/04/30 22:05:34;;;;;;;43.90;26.83;;;;;;;6.66;95.04;100094.19;20897005;28;20044;-70
2021/04/30 22:15:38;;;;;;;44.80;27.98;;;;;;;6.60;96.34;100092.72;20910370;28;20041;-70
2021/04/30 22:25:40;;;;;;;45.07;28.83;;;;;;;6.39;97.32;100093.63;20906313;22;20048;-69
2021/04/30 22:35:42;;;;;;;42.50;27.70;;;;;;;6.22;97.98;100090.88;20864386;28;20068;-70
2021/04/30 22:45:44;;;;;;;50.47;29.33;;;;;;;5.97;99.63;100094.47;20903537;28;20110;-70
2021/04/30 22:55:46;;;;;;;48.83;29.38;;;;;;;5.84;100.00;100093.22;20898132;28;20045;-70
2021/04/30 23:05:48;;;;;;;52.10;31.48;;;;;;;5.82;100.00;100097.66;20912936;28;20044;-70
2021/04/30 23:15:49;;;;;;;52.92;31.75;;;;;;;5.81;100.00;100110.69;20907159;28;20041;-70
2021/04/30 23:25:51;;;;;;;57.30;33.35;;;;;;;5.91;100.00;100097.31;20912873;28;20126;-69
2021/04/30 23:35:52;;;;;;;50.08;31.10;;;;;;;5.87;100.00;100085.38;20890926;28;20095;-70
2021/04/30 23:45:59;;;;;;;50.70;31.35;;;;;;;5.56;100.00;100079.66;20911405;28;20060;-71
2021/04/30 23:56:00;;;;;;;52.60;29.70;;;;;;;5.40;100.00;100066.41;20910294;28;20512;-69
